Time;durP1;ratioP1;P1;durP2;ratioP2;P2;SDS_P1;SDS_P2;PMS_P1;PMS_P2;Temp;Humidity;BMP_temperature;BMP_pressure;BME280_temperature;BME280_humidity;BME280_pressure;Samples;Min_cycle;Max_cycle;Signal;HPM_P1;HPM_P2
2022/01/31 00:02:09;;;;;;;9.10;3.90;;;;;;;1.91;86.03;100538.91;4991084;28;20238;-62
2022/01/31 00:04:35;;;;;;;14.13;4.00;;;;;;;1.80;86.37;100517.91;5017947;28;20276;-62
2022/01/31 00:07:00;;;;;;;16.57;4.13;;;;;;;1.99;86.83;100523.59;5016304;28;20302;-65
2022/01/31 00:09:26;;;;;;;13.20;4.63;;;;;;;2.03;86.29;100502.38;5009383;28;20255;-63
2022/01/31 00:11:57;;;;;;;15.13;4.70;;;;;;;1.96;86.05;100477.97;5010451;28;20210;-63
2022/01/31 00:14:33;;;;;;;8.63;3.47;;;;;;;2.05;85.40;100460.06;5030762;28;20183;-66
2022/01/31 00:16:59;;;;;;;12.53;3.63;;;;;;;2.08;85.20;100457.50;5001155;28;20298;-64
2022/01/31 00:19:24;;;;;;;11.03;3.60;;;;;;;2.09;84.75;100458.34;5004168;28;20176;-65
2022/01/31 00:21:49;;;;;;;12.40;3.70;;;;;;;2.00;84.99;100466.06;4999077;28;20278;-62
2022/01/31 00:24:15;;;;;;;12.10;3.33;;;;;;;1.87;85.36;100461.19;4996647;28;20171;-64
2022/01/31 00:26:40;;;;;;;11.57;3.27;;;;;;;1.98;84.93;100442.44;5004526;28;20554;-63
2022/01/31 00:29:05;;;;;;;19.93;5.43;;;;;;;2.00;84.79;100441.53;4991173;28;20210;-64
2022/01/31 00:31:31;;;;;;;16.77;3.97;;;;;;;1.94;84.63;100429.75;4985058;28;20216;-63
2022/01/31 00:33:57;;;;;;;12.40;3.77;;;;;;;1.94;84.97;100414.53;5005266;28;20181;-63
2022/01/31 00:36:22;;;;;;;11.87;4.27;;;;;;;1.83;84.85;100403.72;4993026;28;20619;-64
2022/01/31 00:38:47;;;;;;;9.80;3.23;;;;;;;1.73;84.99;100372.56;5010056;28;20178;-63
2022/01/31 00:41:13;;;;;;;11.83;3.70;;;;;;;1.58;85.59;100348.25;4999087;28;20237;-62
2022/01/31 00:43:38;;;;;;;7.10;3.60;;;;;;;1.55;86.74;100335.63;5001736;28;20686;-63
2022/01/31 00:46:11;;;;;;;14.43;4.07;;;;;;;1.48;86.90;100338.22;4997168;28;20173;-63
2022/01/31 00:48:42;;;;;;;10.30;4.03;;;;;;;1.42;87.62;100336.63;5004720;28;20543;-64
2022/01/31 00:51:08;;;;;;;14.93;4.83;;;;;;;1.38;87.87;100328.22;5003919;28;20226;-63
2022/01/31 00:53:33;;;;;;;10.00;3.43;;;;;;;1.48;87.65;100307.81;4998353;28;20179;-64
2022/01/31 00:55:59;;;;;;;11.43;4.10;;;;;;;1.42;88.00;100286.75;5004431;28;20695;-62
2022/01/31 00:58:24;;;;;;;11.47;4.17;;;;;;;1.49;87.98;100276.53;5006235;28;20172;-63
2022/01/31 01:00:49;;;;;;;7.13;3.93;;;;;;;1.29;88.53;100273.44;4987088;28;20423;-62
2022/01/31 01:03:15;;;;;;;11.07;4.17;;;;;;;1.36;88.96;100274.16;5009824;28;20210;-62
2022/01/31 01:05:40;;;;;;;9.43;3.40;;;;;;;1.33;89.15;100255.63;4997734;28;20288;-64
2022/01/31 01:08:05;;;;;;;14.23;4.10;;;;;;;1.37;89.12;100253.03;4990920;28;20199;-62
2022/01/31 01:10:31;;;;;;;11.77;4.33;;;;;;;1.31;89.18;100237.09;4984231;28;20711;-62
2022/01/31 01:12:56;;;;;;;12.37;4.47;;;;;;;1.12;89.71;100222.16;5001945;28;20181;-65
2022/01/31 01:15:21;;;;;;;15.23;4.37;;;;;;;1.07;90.43;100207.00;5009429;28;20175;-64
2022/01/31 01:17:47;;;;;;;9.77;4.13;;;;;;;1.10;90.76;100189.25;4990679;28;20192;-63
2022/01/31 01:20:15;;;;;;;12.40;4.10;;;;;;;1.13;90.81;100186.66;4997928;28;20174;-62
2022/01/31 01:22:40;;;;;;;13.80;4.30;;;;;;;1.06;90.87;100177.44;5023122;28;20547;-64
2022/01/31 01:25:07;;;;;;;10.33;4.00;;;;;;;1.30;90.70;100170.34;5013143;28;20190;-62
2022/01/31 01:27:32;;;;;;;20.93;4.50;;;;;;;1.34;90.58;100150.84;4998995;28;20278;-62
2022/01/31 01:29:57;;;;;;;7.03;3.47;;;;;;;1.31;90.18;100136.53;4995291;28;20646;-63
2022/01/31 01:32:24;;;;;;;15.07;4.00;;;;;;;1.17;90.50;100130.88;5010356;28;20220;-63
2022/01/31 01:34:50;;;;;;;16.23;4.17;;;;;;;1.34;90.64;100125.53;5008178;28;20208;-62
2022/01/31 01:37:18;;;;;;;9.83;3.30;;;;;;;1.43;90.50;100131.28;5009510;28;20244;-64
2022/01/31 01:39:45;;;;;;;15.30;3.93;;;;;;;1.62;90.00;100146.19;5004782;28;20206;-63
2022/01/31 01:42:11;;;;;;;10.23;3.63;;;;;;;1.52;89.49;100148.03;4999517;28;20231;-64
2022/01/31 01:44:46;;;;;;;15.00;5.23;;;;;;;1.58;89.20;100125.09;5010527;28;20183;-64
2022/01/31 01:47:18;;;;;;;12.73;4.03;;;;;;;1.58;89.18;100101.47;5013110;28;20552;-65
2022/01/31 01:49:45;;;;;;;10.73;3.77;;;;;;;1.51;89.27;100075.38;5013726;28;20169;-63
2022/01/31 01:52:10;;;;;;;15.73;4.27;;;;;;;1.56;89.33;100062.63;5001214;28;20318;-62
2022/01/31 01:54:36;;;;;;;16.03;4.23;;;;;;;1.62;89.23;100059.97;4993419;28;20300;-63
2022/01/31 01:57:03;;;;;;;13.37;4.20;;;;;;;1.56;89.24;100055.00;4993820;28;20270;-62
2022/01/31 01:59:29;;;;;;;12.63;3.73;;;;;;;1.80;88.85;100053.72;4993395;28;20272;-63
2022/01/31 02:01:54;;;;;;;17.60;3.93;;;;;;;1.81;88.50;100039.34;4978369;28;20309;-65
2022/01/31 02:04:19;;;;;;;15.27;4.20;;;;;;;1.97;87.85;100027.19;4975162;28;20190;-63
2022/01/31 02:06:45;;;;;;;12.10;3.70;;;;;;;1.84;87.75;100011.41;4975716;28;20214;-63
2022/01/31 02:09:11;;;;;;;8.40;3.63;;;;;;;1.88;87.71;100000.31;4974495;28;20230;-62
2022/01/31 02:11:36;;;;;;;19.67;4.93;;;;;;;1.85;88.10;99975.84;4989385;28;20404;-64
2022/01/31 02:14:02;;;;;;;11.23;4.00;;;;;;;1.89;88.25;99979.97;4996864;28;20192;-62
2022/01/31 02:16:28;;;;;;;8.87;3.87;;;;;;;1.92;87.81;99974.84;4994402;28;20685;-63
2022/01/31 02:18:54;;;;;;;13.10;4.17;;;;;;;2.13;86.91;99954.94;5002229;28;20208;-64
2022/01/31 02:21:20;;;;;;;11.43;3.83;;;;;;;2.04;87.10;99939.94;5002002;28;20615;-63
2022/01/31 02:23:45;;;;;;;10.13;3.53;;;;;;;2.12;86.76;99932.97;5011397;28;20189;-62
2022/01/31 02:26:11;;;;;;;11.27;4.23;;;;;;;2.25;86.68;99926.75;5017341;28;20239;-62
2022/01/31 02:28:39;;;;;;;14.90;4.90;;;;;;;2.17;86.47;99936.25;5014554;28;20794;-62
2022/01/31 02:31:06;;;;;;;12.87;4.20;;;;;;;2.17;86.58;99912.56;5010391;28;20326;-62
2022/01/31 02:33:32;;;;;;;10.17;4.43;;;;;;;2.21;86.56;99906.59;5019438;28;20186;-65
2022/01/31 02:36:00;;;;;;;15.73;4.83;;;;;;;2.26;86.65;99914.91;5012522;28;20644;-62
2022/01/31 02:38:27;;;;;;;10.63;3.30;;;;;;;2.14;86.25;99927.88;5012242;28;20830;-63
2022/01/31 02:40:52;;;;;;;15.13;4.40;;;;;;;2.32;86.74;99936.75;5008773;28;20685;-62
2022/01/31 02:43:30;;;;;;;11.07;4.13;;;;;;;2.31;86.24;99960.47;5021449;28;20204;-63
2022/01/31 02:45:56;;;;;;;10.73;3.90;;;;;;;2.41;86.34;99942.47;5027788;28;20181;-62
2022/01/31 02:48:24;;;;;;;11.50;3.93;;;;;;;2.51;86.58;99932.09;5012285;28;20197;-65
2022/01/31 02:50:51;;;;;;;12.00;4.10;;;;;;;2.40;85.54;99925.56;5008565;28;20658;-64
2022/01/31 02:53:32;;;;;;;12.87;4.47;;;;;;;2.15;85.87;99917.69;5021109;28;20204;-65
2022/01/31 02:56:00;;;;;;;14.87;5.53;;;;;;;1.92;87.86;99906.38;5012727;28;20554;-65
2022/01/31 02:58:26;;;;;;;13.03;4.13;;;;;;;1.99;87.86;99912.13;5012715;28;20267;-62
2022/01/31 03:00:53;;;;;;;14.00;4.40;;;;;;;1.93;87.97;99892.81;5008079;28;20625;-64
2022/01/31 03:03:19;;;;;;;17.60;5.27;;;;;;;2.09;87.80;99893.28;5020687;28;20216;-64
2022/01/31 03:05:45;;;;;;;11.80;5.03;;;;;;;1.68;88.45;99876.47;5012288;28;20177;-64
2022/01/31 03:08:10;;;;;;;17.43;5.20;;;;;;;1.56;89.79;99860.66;5012562;28;20216;-65
2022/01/31 03:10:36;;;;;;;12.83;4.83;;;;;;;1.59;90.17;99852.97;5001696;28;20249;-65
2022/01/31 03:13:02;;;;;;;15.47;5.33;;;;;;;1.55;90.73;99850.50;5003137;28;20184;-63
2022/01/31 03:15:27;;;;;;;19.43;4.13;;;;;;;1.72;90.69;99835.75;5007576;28;20185;-63
2022/01/31 03:17:52;;;;;;;16.50;5.30;;;;;;;1.55;90.51;99815.88;4992335;28;20215;-65
2022/01/31 03:20:20;;;;;;;15.27;5.20;;;;;;;1.71;91.18;99807.91;4982742;28;20567;-62
2022/01/31 03:22:47;;;;;;;13.93;5.20;;;;;;;1.80;91.22;99812.78;4971769;28;20205;-66
2022/01/31 03:25:12;;;;;;;12.20;4.33;;;;;;;1.61;91.03;99790.38;4991908;28;20186;-63
2022/01/31 03:27:39;;;;;;;11.03;4.47;;;;;;;1.68;92.08;99786.00;4992426;28;20208;-63
2022/01/31 03:30:10;;;;;;;18.50;4.30;;;;;;;1.63;91.78;99770.06;4982377;28;20196;-62
2022/01/31 03:32:36;;;;;;;16.53;5.70;;;;;;;1.75;92.54;99762.16;5014503;28;20198;-63
2022/01/31 03:35:03;;;;;;;12.90;4.37;;;;;;;1.87;92.24;99752.59;5011392;28;20671;-62
2022/01/31 03:37:28;;;;;;;19.43;4.97;;;;;;;2.03;91.81;99735.28;5012377;28;20214;-63
2022/01/31 03:39:54;;;;;;;16.93;4.33;;;;;;;1.99;92.01;99721.03;5018208;28;20187;-63
2022/01/31 03:42:19;;;;;;;13.43;4.60;;;;;;;2.13;91.73;99711.34;5001585;28;20228;-64
2022/01/31 03:44:47;;;;;;;14.27;4.07;;;;;;;2.20;90.99;99702.69;5016815;28;20203;-62
2022/01/31 03:47:13;;;;;;;10.77;4.50;;;;;;;2.12;91.13;99680.94;5011531;28;20379;-63
2022/01/31 03:49:38;;;;;;;9.43;3.77;;;;;;;2.24;91.05;99667.94;5021102;28;20189;-63
2022/01/31 03:52:04;;;;;;;10.57;4.57;;;;;;;2.36;90.52;99649.00;5004994;28;20318;-64
2022/01/31 03:54:29;;;;;;;16.70;4.43;;;;;;;2.48;90.15;99641.03;5016505;28;20178;-62
2022/01/31 03:56:54;;;;;;;12.53;4.00;;;;;;;2.46;89.58;99629.25;5011749;28;20199;-63
2022/01/31 03:59:20;;;;;;;13.13;3.90;;;;;;;2.55;89.44;99624.72;4998684;28;20197;-62
2022/01/31 04:01:45;;;;;;;15.87;3.97;;;;;;;2.53;88.74;99612.94;4973476;28;20235;-62
2022/01/31 04:04:11;;;;;;;10.47;4.00;;;;;;;2.62;88.95;99606.78;4991442;28;20204;-62
2022/01/31 04:06:38;;;;;;;9.20;4.43;;;;;;;2.65;88.92;99610.06;4999055;28;20254;-62
2022/01/31 04:09:04;;;;;;;13.80;4.67;;;;;;;2.67;89.04;99603.22;4994153;28;20200;-62
2022/01/31 04:11:29;;;;;;;13.87;4.33;;;;;;;2.73;89.07;99595.44;4988885;28;20226;-62
2022/01/31 04:13:54;;;;;;;14.70;4.40;;;;;;;2.77;88.62;99588.56;4980448;28;20274;-62
2022/01/31 04:16:20;;;;;;;13.23;5.00;;;;;;;2.77;88.93;99582.63;4963477;28;20250;-62
2022/01/31 04:18:45;;;;;;;16.77;4.90;;;;;;;2.85;89.06;99575.59;4990886;28;20275;-63
2022/01/31 04:21:10;;;;;;;10.43;3.90;;;;;;;2.87;88.44;99577.22;4980398;28;20241;-61
2022/01/31 04:23:36;;;;;;;12.43;4.40;;;;;;;2.82;88.50;99571.44;4989428;28;20243;-62
2022/01/31 04:26:11;;;;;;;9.60;4.20;;;;;;;2.79;88.97;99556.31;4991027;28;20190;-64
2022/01/31 04:28:44;;;;;;;12.63;5.53;;;;;;;2.84;88.94;99540.91;4984250;28;20186;-61
2022/01/31 04:33:38;;;;;;;13.17;4.53;;;;;;;2.86;88.92;99529.00;4984971;28;20190;-62
2022/01/31 04:36:04;;;;;;;12.43;4.97;;;;;;;2.86;88.91;99512.03;4990544;28;20525;-61
2022/01/31 04:38:30;;;;;;;15.77;5.00;;;;;;;2.87;89.37;99517.97;4990860;28;20224;-62
2022/01/31 04:40:55;;;;;;;11.37;4.50;;;;;;;2.90;89.74;99513.63;4981142;28;20229;-62
2022/01/31 04:43:21;;;;;;;11.10;4.03;;;;;;;2.89;91.25;99500.94;4982702;28;20205;-62
2022/01/31 04:45:48;;;;;;;12.00;4.80;;;;;;;2.73;94.44;99509.06;4990774;28;20268;-62
2022/01/31 04:48:17;;;;;;;15.27;4.57;;;;;;;2.49;97.68;99492.06;4990530;28;20640;-62
2022/01/31 04:50:43;;;;;;;10.57;4.60;;;;;;;2.58;99.36;99495.16;4985775;28;20226;-62
2022/01/31 04:53:10;;;;;;;11.33;4.67;;;;;;;2.44;100.00;99494.75;5011998;28;20175;-62
2022/01/31 04:55:35;;;;;;;20.10;5.17;;;;;;;2.47;100.00;99481.13;5009815;28;20607;-62
2022/01/31 04:58:01;;;;;;;12.23;4.80;;;;;;;2.48;100.00;99463.31;4992805;28;20379;-62
2022/01/31 05:00:27;;;;;;;18.40;5.27;;;;;;;2.41;100.00;99469.47;4994766;28;20707;-62
2022/01/31 05:02:53;;;;;;;14.37;4.90;;;;;;;2.33;100.00;99469.72;4977950;28;20217;-61
2022/01/31 05:05:18;;;;;;;13.57;4.97;;;;;;;2.31;100.00;99463.84;4982575;28;20186;-61
2022/01/31 05:07:43;;;;;;;10.73;4.80;;;;;;;2.34;100.00;99460.38;4953969;28;20210;-61
2022/01/31 05:10:09;;;;;;;18.87;6.13;;;;;;;2.29;100.00;99436.84;4977159;28;20181;-63
2022/01/31 05:12:34;;;;;;;17.20;5.53;;;;;;;2.35;100.00;99446.81;4988938;28;20170;-61
2022/01/31 05:15:00;;;;;;;15.47;5.20;;;;;;;2.28;100.00;99446.16;4990292;28;20192;-61
2022/01/31 05:17:25;;;;;;;12.93;5.67;;;;;;;2.16;100.00;99446.53;4973861;28;20210;-61
2022/01/31 05:19:51;;;;;;;11.13;5.27;;;;;;;2.11;100.00;99439.06;4976126;28;20185;-61
2022/01/31 05:22:16;;;;;;;11.67;5.03;;;;;;;2.13;100.00;99434.75;4963635;28;20233;-61
2022/01/31 05:24:41;;;;;;;14.83;4.93;;;;;;;2.19;100.00;99433.75;4974277;28;20181;-61
2022/01/31 05:27:07;;;;;;;15.43;4.63;;;;;;;2.17;100.00;99421.13;4959420;28;20615;-61
2022/01/31 05:29:32;;;;;;;11.00;4.53;;;;;;;2.14;100.00;99433.88;4990390;28;20677;-61
2022/01/31 05:31:57;;;;;;;9.47;4.43;;;;;;;2.16;100.00;99414.38;4978068;28;20237;-62
2022/01/31 05:34:24;;;;;;;10.73;4.13;;;;;;;2.17;100.00;99412.66;4985292;28;20182;-63
2022/01/31 05:36:54;;;;;;;11.50;4.37;;;;;;;2.17;100.00;99420.28;4971250;28;20292;-61
2022/01/31 05:39:21;;;;;;;10.60;4.20;;;;;;;2.20;100.00;99417.66;4989163;28;20185;-63
2022/01/31 05:41:46;;;;;;;9.13;4.37;;;;;;;2.19;100.00;99413.47;4957865;28;20272;-60
2022/01/31 05:44:11;;;;;;;13.27;5.00;;;;;;;2.21;100.00;99399.84;4978366;28;20177;-60
2022/01/31 05:46:36;;;;;;;11.40;4.17;;;;;;;2.22;100.00;99403.19;4973552;28;20553;-60
2022/01/31 05:49:02;;;;;;;12.33;4.20;;;;;;;2.24;100.00;99401.44;4978522;28;20196;-63
2022/01/31 05:51:27;;;;;;;13.73;3.80;;;;;;;2.31;100.00;99402.06;4968023;28;20696;-59
2022/01/31 05:53:53;;;;;;;9.80;4.70;;;;;;;2.25;100.00;99398.84;4985127;28;20178;-60
2022/01/31 05:56:19;;;;;;;10.10;3.90;;;;;;;2.21;100.00;99387.16;4979954;28;20285;-63
2022/01/31 05:58:45;;;;;;;7.23;4.10;;;;;;;2.20;100.00;99392.28;4984459;28;20627;-61
2022/01/31 06:01:11;;;;;;;6.27;3.67;;;;;;;2.24;100.00;99381.97;4964319;28;20220;-60
2022/01/31 06:03:40;;;;;;;10.00;3.87;;;;;;;2.21;100.00;99382.09;4980563;28;20236;-60
2022/01/31 06:06:05;;;;;;;15.00;4.00;;;;;;;2.23;100.00;99408.25;4990360;28;20271;-61
2022/01/31 06:08:30;;;;;;;12.00;4.33;;;;;;;2.35;100.00;99411.28;4989609;28;20269;-60
2022/01/31 06:10:56;;;;;;;7.73;3.50;;;;;;;2.33;100.00;99398.63;4975403;28;20301;-61
2022/01/31 06:13:28;;;;;;;9.03;3.13;;;;;;;2.39;100.00;99390.84;4967751;28;20171;-61
2022/01/31 06:15:53;;;;;;;5.70;3.40;;;;;;;2.36;100.00;99382.47;4982128;28;20253;-62
2022/01/31 06:18:19;;;;;;;8.47;3.30;;;;;;;2.34;100.00;99379.16;4974733;28;20180;-61
2022/01/31 06:20:44;;;;;;;8.07;3.10;;;;;;;2.38;100.00;99373.94;4970317;28;20709;-61
2022/01/31 06:23:11;;;;;;;7.17;3.37;;;;;;;2.41;100.00;99385.69;4983973;28;20666;-64
2022/01/31 06:25:36;;;;;;;6.80;2.80;;;;;;;2.44;100.00;99375.44;4992622;28;20194;-62
2022/01/31 06:28:04;;;;;;;4.03;2.70;;;;;;;2.43;100.00;99376.31;4976568;28;20298;-62
2022/01/31 06:30:29;;;;;;;7.37;2.90;;;;;;;2.45;100.00;99371.19;4972249;28;20264;-62
2022/01/31 06:32:55;;;;;;;5.57;2.63;;;;;;;2.45;100.00;99388.97;4991873;28;20331;-62
2022/01/31 06:35:20;;;;;;;5.90;2.53;;;;;;;2.51;100.00;99404.00;4982054;28;20185;-63
2022/01/31 06:37:46;;;;;;;3.53;1.97;;;;;;;2.48;100.00;99404.94;4991539;28;20679;-61
2022/01/31 06:40:12;;;;;;;2.67;1.77;;;;;;;2.53;100.00;99387.84;4981699;28;20219;-61
2022/01/31 06:42:37;;;;;;;3.70;2.30;;;;;;;2.68;100.00;99395.81;4974456;28;20207;-63
2022/01/31 06:45:04;;;;;;;7.30;3.10;;;;;;;2.62;100.00;99363.00;4988845;28;20221;-62
2022/01/31 06:47:30;;;;;;;3.17;1.80;;;;;;;2.56;100.00;99379.28;4991766;28;20235;-62
2022/01/31 06:49:56;;;;;;;2.47;1.90;;;;;;;2.54;100.00;99379.34;4992441;28;20595;-62
2022/01/31 06:52:22;;;;;;;3.33;1.93;;;;;;;2.49;100.00;99377.81;4959003;28;20558;-63
2022/01/31 06:54:50;;;;;;;2.37;2.10;;;;;;;2.47;100.00;99382.97;4987940;28;20175;-63
2022/01/31 06:57:17;;;;;;;4.43;2.13;;;;;;;2.47;100.00;99369.41;4991379;28;20618;-63
2022/01/31 06:59:43;;;;;;;5.33;2.67;;;;;;;2.48;100.00;99364.31;4990767;28;20186;-62
2022/01/31 07:02:08;;;;;;;4.60;2.10;;;;;;;2.42;100.00;99355.19;4961844;28;20237;-63
2022/01/31 07:04:33;;;;;;;2.77;1.57;;;;;;;2.41;100.00;99365.38;4991595;28;20279;-62
2022/01/31 07:06:59;;;;;;;2.67;1.67;;;;;;;2.37;100.00;99379.88;4986009;28;20245;-62
2022/01/31 07:09:24;;;;;;;3.03;1.60;;;;;;;2.36;100.00;99382.47;4986106;28;20188;-63
2022/01/31 07:11:52;;;;;;;1.70;1.50;;;;;;;2.38;100.00;99380.69;4962799;28;20244;-63
2022/01/31 07:14:51;;;;;;;2.93;1.53;;;;;;;2.32;100.00;99373.28;4984562;28;20184;-62
2022/01/31 07:17:09;;;;;;;2.03;1.73;;;;;;;2.36;100.00;99379.94;4989618;28;20674;-62
2022/01/31 07:19:38;;;;;;;3.20;1.60;;;;;;;2.38;100.00;99384.09;4989509;28;20272;-63
2022/01/31 07:22:08;;;;;;;4.47;1.43;;;;;;;2.39;100.00;99389.97;4972546;28;20240;-60
2022/01/31 07:27:03;;;;;;;5.30;1.60;;;;;;;2.39;100.00;99384.91;4991348;28;20221;-63
2022/01/31 07:29:29;;;;;;;3.83;1.77;;;;;;;2.54;100.00;99383.56;4977411;28;20297;-63
2022/01/31 07:31:56;;;;;;;4.07;2.10;;;;;;;2.72;100.00;99392.31;4979489;28;20219;-62
2022/01/31 07:34:22;;;;;;;2.93;1.87;;;;;;;2.88;100.00;99397.69;4989516;28;20189;-62
2022/01/31 07:36:48;;;;;;;4.00;1.80;;;;;;;2.95;100.00;99399.13;4984908;28;20217;-63
2022/01/31 07:39:14;;;;;;;3.57;1.77;;;;;;;2.90;100.00;99383.22;4984879;28;20270;-63
2022/01/31 07:41:39;;;;;;;9.47;2.20;;;;;;;2.83;100.00;99371.59;4974998;28;20705;-63
2022/01/31 07:44:05;;;;;;;3.17;1.90;;;;;;;2.75;100.00;99371.88;4987112;28;20278;-61
2022/01/31 07:46:31;;;;;;;4.07;1.73;;;;;;;2.73;100.00;99389.72;4986969;28;20657;-61
2022/01/31 07:48:56;;;;;;;3.47;1.90;;;;;;;2.69;100.00;99383.09;4990164;28;20261;-61
2022/01/31 07:51:22;;;;;;;3.50;2.13;;;;;;;2.73;100.00;99361.75;4989302;28;20270;-61
2022/01/31 07:53:48;;;;;;;3.23;1.73;;;;;;;2.71;100.00;99358.44;4979325;28;20559;-64
2022/01/31 07:56:15;;;;;;;2.60;2.00;;;;;;;2.82;100.00;99364.88;4983983;28;20746;-64
2022/01/31 07:58:41;;;;;;;6.03;2.03;;;;;;;2.95;100.00;99360.19;4972558;28;20233;-63
2022/01/31 08:01:07;;;;;;;2.57;2.03;;;;;;;3.05;100.00;99358.97;4973650;28;20268;-61
2022/01/31 08:03:33;;;;;;;3.20;1.73;;;;;;;3.02;100.00;99339.59;5009000;28;20278;-62
2022/01/31 08:05:59;;;;;;;3.00;1.97;;;;;;;2.92;100.00;99345.06;4994338;28;20186;-63
2022/01/31 08:08:24;;;;;;;2.43;1.70;;;;;;;3.03;100.00;99359.03;5002401;28;20271;-65
2022/01/31 08:10:50;;;;;;;2.57;1.83;;;;;;;3.06;100.00;99350.47;4994605;28;20263;-63
2022/01/31 08:13:16;;;;;;;2.13;1.60;;;;;;;3.06;100.00;99358.94;5000796;28;20194;-62
2022/01/31 08:15:47;;;;;;;4.37;2.23;;;;;;;3.09;100.00;99355.47;4994794;28;20234;-61
2022/01/31 08:18:13;;;;;;;3.57;1.63;;;;;;;3.11;100.00;99346.06;5000661;28;20542;-61
2022/01/31 08:20:38;;;;;;;3.97;2.50;;;;;;;3.12;100.00;99335.00;4985944;28;20234;-62
2022/01/31 08:23:03;;;;;;;4.87;1.50;;;;;;;3.02;100.00;99336.22;5000003;28;20218;-64
2022/01/31 08:25:35;;;;;;;1.97;1.67;;;;;;;3.06;100.00;99328.47;4991260;28;20269;-61
2022/01/31 08:28:06;;;;;;;1.83;1.60;;;;;;;3.22;100.00;99333.81;4995311;28;20210;-61
2022/01/31 08:30:38;;;;;;;3.27;1.60;;;;;;;3.42;100.00;99328.88;4963755;28;20233;-61
2022/01/31 08:33:13;;;;;;;2.47;1.40;;;;;;;3.48;100.00;99334.53;5005562;28;20174;-63
2022/01/31 08:35:48;;;;;;;3.03;1.60;;;;;;;3.54;100.00;99333.50;4999229;28;20178;-64
2022/01/31 08:38:15;;;;;;;3.23;1.43;;;;;;;3.62;100.00;99323.03;4990581;28;20202;-62
2022/01/31 08:40:41;;;;;;;1.60;1.50;;;;;;;3.73;100.00;99308.16;4987562;28;20699;-61
2022/01/31 08:43:07;;;;;;;3.60;1.87;;;;;;;3.76;100.00;99317.41;5012523;28;20194;-62
2022/01/31 08:45:34;;;;;;;2.63;1.77;;;;;;;3.97;100.00;99321.66;4990696;28;20175;-61
2022/01/31 08:48:00;;;;;;;4.50;1.60;;;;;;;4.07;100.00;99311.09;4995268;28;20260;-62
2022/01/31 08:50:25;;;;;;;6.40;1.90;;;;;;;4.28;100.00;99305.13;4992364;28;20230;-63
2022/01/31 08:52:50;;;;;;;3.87;2.40;;;;;;;4.23;100.00;99304.50;5002473;28;20186;-60
2022/01/31 08:55:17;;;;;;;11.77;1.90;;;;;;;4.45;100.00;99299.34;4991198;28;20600;-61
2022/01/31 08:57:42;;;;;;;2.97;1.60;;;;;;;4.61;100.00;99296.97;4990582;28;20214;-61
2022/01/31 09:00:08;;;;;;;2.30;1.90;;;;;;;4.92;100.00;99289.72;4986585;28;20182;-61
2022/01/31 09:02:40;;;;;;;4.30;1.67;;;;;;;5.10;97.21;99286.34;5011276;28;20854;-58
2022/01/31 09:05:07;;;;;;;5.20;2.03;;;;;;;5.06;97.94;99294.19;4988811;28;20329;-63
2022/01/31 09:07:32;;;;;;;2.13;1.50;;;;;;;5.02;96.53;99288.41;4993878;28;20209;-61
2022/01/31 09:09:59;;;;;;;5.70;1.97;;;;;;;4.81;98.66;99280.81;4997019;28;20220;-63
2022/01/31 09:12:28;;;;;;;3.93;1.70;;;;;;;4.81;99.46;99277.44;5002276;28;20228;-61
2022/01/31 09:14:53;;;;;;;5.07;1.57;;;;;;;4.71;99.61;99276.19;4992684;28;20195;-60
2022/01/31 09:17:19;;;;;;;3.27;1.50;;;;;;;4.93;100.00;99296.47;4989276;28;20242;-62
2022/01/31 09:19:44;;;;;;;3.97;1.87;;;;;;;5.09;98.84;99286.44;4990686;28;20595;-62
2022/01/31 09:22:09;;;;;;;3.23;1.87;;;;;;;4.96;97.11;99281.03;4978818;28;20306;-62
2022/01/31 09:24:38;;;;;;;4.50;1.87;;;;;;;5.11;96.68;99284.59;4978889;28;20184;-63
2022/01/31 09:27:05;;;;;;;3.57;1.57;;;;;;;5.11;95.80;99282.06;4993675;28;20192;-62
2022/01/31 09:29:30;;;;;;;3.57;1.40;;;;;;;5.39;95.26;99268.88;4991450;28;20188;-62
2022/01/31 09:31:55;;;;;;;4.27;1.90;;;;;;;6.05;91.19;99290.47;4990910;28;20231;-62
2022/01/31 09:34:23;;;;;;;3.53;1.30;;;;;;;5.78;87.93;99284.94;5003436;28;20185;-62
2022/01/31 09:36:48;;;;;;;6.73;1.83;;;;;;;5.51;91.13;99295.56;4990527;28;20220;-63
2022/01/31 09:39:14;;;;;;;4.20;1.50;;;;;;;5.52;91.22;99289.56;4988808;28;20679;-62
2022/01/31 09:41:42;;;;;;;4.70;1.53;;;;;;;5.56;90.34;99298.72;4995303;28;20246;-62
2022/01/31 09:44:20;;;;;;;3.90;1.40;;;;;;;5.50;90.40;99299.81;4992455;28;20186;-63
2022/01/31 09:49:11;;;;;;;3.07;1.53;;;;;;;5.03;96.23;99295.16;4994264;28;20199;-63
2022/01/31 09:51:36;;;;;;;2.93;1.33;;;;;;;4.94;96.65;99298.13;4995581;28;20953;-63
2022/01/31 09:54:03;;;;;;;3.03;1.27;;;;;;;5.06;97.17;99301.84;4998046;28;20172;-63
2022/01/31 09:56:33;;;;;;;2.40;1.20;;;;;;;5.25;96.11;99304.41;4995500;28;20281;-63
2022/01/31 09:59:00;;;;;;;5.00;1.20;;;;;;;5.37;93.98;99293.66;5006973;28;20263;-63
2022/01/31 10:01:28;;;;;;;3.10;1.40;;;;;;;5.77;94.34;99291.78;4998154;28;20685;-61
2022/01/31 10:03:56;;;;;;;4.00;1.47;;;;;;;5.59;91.59;99293.44;5003067;28;20203;-62
2022/01/31 10:06:32;;;;;;;2.07;1.40;;;;;;;5.45;92.53;99280.53;4997528;28;20205;-63
2022/01/31 10:09:13;;;;;;;3.37;1.30;;;;;;;5.51;91.82;99287.91;4993591;28;20191;-62
2022/01/31 10:11:51;;;;;;;1.77;1.10;;;;;;;5.50;90.72;99271.75;5003460;28;20232;-63
2022/01/31 10:17:28;;;;;;;3.17;1.23;;;;;;;5.80;89.14;99283.97;4994965;28;20212;-63
2022/01/31 10:20:08;;;;;;;3.03;1.17;;;;;;;5.76;89.91;99277.34;4982890;28;20655;-64
2022/01/31 10:22:38;;;;;;;1.70;1.03;;;;;;;5.54;90.08;99285.19;4997629;28;20229;-63
2022/01/31 10:25:08;;;;;;;2.13;1.10;;;;;;;5.38;90.49;99282.53;5001485;28;20226;-63
2022/01/31 10:27:36;;;;;;;2.13;1.20;;;;;;;5.49;91.87;99282.03;5003829;28;20204;-63
2022/01/31 10:30:26;;;;;;;3.30;1.03;;;;;;;5.34;90.70;99286.94;5002645;28;20317;-63
2022/01/31 10:32:54;;;;;;;3.90;1.20;;;;;;;5.50;92.08;99278.59;4990008;28;20293;-63
2022/01/31 10:35:23;;;;;;;3.47;1.10;;;;;;;5.41;91.46;99284.09;5010900;28;20179;-63
2022/01/31 10:37:54;;;;;;;2.33;1.00;;;;;;;5.51;92.69;99277.69;5021426;28;20196;-61
2022/01/31 10:54:03;;;;;;;5.20;0.90;;;;;;;5.13;96.40;99278.53;4980878;28;20198;-63
2022/01/31 10:56:51;;;;;;;4.63;1.00;;;;;;;5.54;97.43;99276.72;4992746;28;20573;-63
2022/01/31 10:59:26;;;;;;;1.87;1.00;;;;;;;5.55;95.12;99278.38;4992939;28;20176;-64
2022/01/31 11:01:55;;;;;;;1.03;0.93;;;;;;;5.50;94.93;99273.50;4996567;28;20268;-63
2022/01/31 11:04:21;;;;;;;5.33;1.33;;;;;;;5.56;95.04;99288.50;4993150;28;20263;-63
2022/01/31 11:06:49;;;;;;;1.20;0.90;;;;;;;5.45;95.14;99283.09;4993758;28;20200;-63
2022/01/31 11:09:17;;;;;;;2.23;0.97;;;;;;;5.40;94.97;99272.28;4975122;28;20245;-63
2022/01/31 11:11:49;;;;;;;1.90;0.90;;;;;;;5.38;95.34;99281.72;5002894;28;20588;-65
2022/01/31 11:14:15;;;;;;;2.35;1.10;;;;;;;5.48;95.39;99281.22;5017648;28;20517;-61
2022/01/31 11:16:43;;;;;;;2.23;1.37;;;;;;;5.36;95.44;99279.25;5027844;28;20195;-63
2022/01/31 11:19:11;;;;;;;1.95;1.00;;;;;;;5.34;94.11;99271.63;4991492;28;20420;-63
2022/01/31 11:21:46;;;;;;;1.97;1.10;;;;;;;5.09;94.64;99274.50;4987915;28;20236;-64
2022/01/31 11:24:20;;;;;;;2.20;0.93;;;;;;;5.08;95.87;99284.75;5011244;28;20181;-64
2022/01/31 11:26:51;;;;;;;1.40;1.00;;;;;;;4.92;94.67;99277.78;5015065;28;20197;-63
2022/01/31 11:29:18;;;;;;;2.40;0.90;;;;;;;5.01;96.54;99276.53;5012007;28;20187;-64
2022/01/31 11:31:45;;;;;;;2.90;1.55;;;;;;;4.86;96.46;99275.50;5007640;28;20585;-63
2022/01/31 11:34:10;;;;;;;2.23;1.17;;;;;;;4.74;96.14;99268.41;5016253;28;20233;-63
2022/01/31 11:36:38;;;;;;;1.27;0.90;;;;;;;4.66;96.57;99259.41;5004173;28;20211;-63
2022/01/31 11:39:06;;;;;;;1.77;0.77;;;;;;;4.64;98.08;99270.53;5002287;28;20181;-62
2022/01/31 11:41:34;;;;;;;1.90;0.77;;;;;;;4.71;99.41;99266.00;4988302;28;20681;-60
2022/01/31 11:44:06;;;;;;;0.90;0.80;;;;;;;4.75;97.44;99270.06;4983279;28;20207;-64
2022/01/31 11:46:33;;;;;;;1.53;0.87;;;;;;;4.62;96.80;99262.13;4984656;28;20684;-62
2022/01/31 11:48:59;;;;;;;1.87;1.30;;;;;;;4.59;98.61;99288.56;4983062;28;20188;-63
2022/01/31 11:51:24;;;;;;;1.77;0.80;;;;;;;4.53;98.17;99266.72;4978770;28;20223;-63
2022/01/31 11:54:05;;;;;;;3.27;1.07;;;;;;;4.48;96.79;99243.19;4988510;28;20183;-62
2022/01/31 11:56:30;;;;;;;1.03;0.90;;;;;;;4.48;96.35;99239.81;4983917;28;20207;-62
2022/01/31 11:58:56;;;;;;;4.23;0.90;;;;;;;4.61;96.62;99246.00;4987480;28;20227;-64